Time;durP1;ratioP1;P1;durP2;ratioP2;P2;SDS_P1;SDS_P2;PMS_P1;PMS_P2;Temp;Humidity;BMP_temperature;BMP_pressure;BME280_temperature;BME280_humidity;BME280_pressure;Samples;Min_cycle;Max_cycle;Signal;HPM_P1;HPM_P2
2021/05/08 00:01:53;;;;;;;7.00;2.70;;;;;;;;;;6186934;23;19997;-60
2021/05/08 00:04:20;;;;;;;6.37;3.00;;;;;;;;;;6186636;23;20013;-61
2021/05/08 00:06:46;;;;;;;5.33;2.70;;;;;;;;;;6186677;23;20002;-61
2021/05/08 00:09:14;;;;;;;5.40;2.63;;;;;;;;;;6186714;23;20079;-61
2021/05/08 00:11:41;;;;;;;4.20;2.83;;;;;;;;;;6187706;23;20048;-60
2021/05/08 00:14:08;;;;;;;4.83;3.00;;;;;;;;;;6186780;23;20005;-59
2021/05/08 00:16:35;;;;;;;4.63;2.57;;;;;;;;;;6186441;23;20464;-62
2021/05/08 00:19:02;;;;;;;5.93;2.93;;;;;;;;;;6186392;23;20013;-61
2021/05/08 00:21:28;;;;;;;23.83;3.70;;;;;;;;;;6186669;23;20424;-61
2021/05/08 00:23:55;;;;;;;7.27;3.73;;;;;;;;;;6186519;23;20417;-61
2021/05/08 00:26:22;;;;;;;4.47;2.87;;;;;;;;;;6186274;23;20001;-61
2021/05/08 00:28:51;;;;;;;8.73;2.60;;;;;;;;;;6186523;23;20005;-61
2021/05/08 00:31:33;;;;;;;6.87;2.80;;;;;;;;;;6186428;23;20036;-61
2021/05/08 00:34:00;;;;;;;6.20;3.07;;;;;;;;;;6186266;23;20044;-61
2021/05/08 00:36:27;;;;;;;7.20;2.90;;;;;;;;;;6186368;23;20080;-61
2021/05/08 00:38:53;;;;;;;6.00;2.80;;;;;;;;;;6186259;23;20013;-61
2021/05/08 00:41:20;;;;;;;4.30;2.80;;;;;;;;;;6186287;23;20080;-61
2021/05/08 00:43:47;;;;;;;4.43;2.60;;;;;;;;;;6186305;23;20009;-61
2021/05/08 00:46:14;;;;;;;4.73;3.23;;;;;;;;;;6186508;23;20001;-61
2021/05/08 00:48:41;;;;;;;8.83;3.30;;;;;;;;;;6186238;23;20076;-61
2021/05/08 00:51:08;;;;;;;6.17;2.97;;;;;;;;;;6186146;23;20318;-62
2021/05/08 00:53:34;;;;;;;7.83;2.97;;;;;;;;;;6187197;23;20075;-61
2021/05/08 00:56:01;;;;;;;5.97;3.10;;;;;;;;;;6186252;23;20001;-62
2021/05/08 00:58:28;;;;;;;10.67;3.13;;;;;;;;;;6185979;23;20083;-61
2021/05/08 01:00:55;;;;;;;6.13;3.57;;;;;;;;;;6186253;23;20001;-61
2021/05/08 01:03:22;;;;;;;7.30;3.73;;;;;;;;;;6186295;23;20032;-61
2021/05/08 01:05:49;;;;;;;8.60;3.83;;;;;;;;;;6186123;23;20015;-61
2021/05/08 01:08:16;;;;;;;6.20;3.47;;;;;;;;;;6185885;23;20016;-61
2021/05/08 01:10:43;;;;;;;6.10;3.57;;;;;;;;;;6187110;23;20012;-61
2021/05/08 01:13:10;;;;;;;4.80;2.90;;;;;;;;;;6186205;23;20437;-61
2021/05/08 01:15:37;;;;;;;5.23;3.10;;;;;;;;;;6186024;23;20020;-61
2021/05/08 01:18:04;;;;;;;6.87;3.40;;;;;;;;;;6185844;23;20009;-61
2021/05/08 01:20:31;;;;;;;5.90;2.90;;;;;;;;;;6186050;23;20005;-61
2021/05/08 01:22:58;;;;;;;4.93;2.90;;;;;;;;;;6185920;23;20076;-61
2021/05/08 01:25:25;;;;;;;5.43;3.20;;;;;;;;;;6185845;23;20012;-61
2021/05/08 01:27:53;;;;;;;6.30;3.63;;;;;;;;;;6186035;23;19997;-61
2021/05/08 01:30:21;;;;;;;6.13;3.47;;;;;;;;;;6185829;23;20005;-61
2021/05/08 01:32:48;;;;;;;8.13;3.13;;;;;;;;;;6185821;23;20035;-61
2021/05/08 01:35:16;;;;;;;5.77;3.13;;;;;;;;;;6186051;23;20369;-62
2021/05/08 01:37:43;;;;;;;8.63;3.90;;;;;;;;;;6185178;23;20016;-61
2021/05/08 01:40:13;;;;;;;7.67;3.53;;;;;;;;;;6185821;23;20016;-61
2021/05/08 01:42:45;;;;;;;7.20;3.50;;;;;;;;;;6186071;23;20059;-62
2021/05/08 01:45:16;;;;;;;7.50;4.07;;;;;;;;;;6185704;23;20092;-61
2021/05/08 01:47:43;;;;;;;5.27;3.27;;;;;;;;;;6185815;23;20001;-61
2021/05/08 01:50:11;;;;;;;7.07;3.17;;;;;;;;;;6185666;23;20012;-62
2021/05/08 01:52:39;;;;;;;7.77;3.37;;;;;;;;;;6185868;23;20056;-62
2021/05/08 01:55:07;;;;;;;7.30;3.17;;;;;;;;;;6185770;23;20067;-61
2021/05/08 01:57:43;;;;;;;4.57;3.03;;;;;;;;;;6185802;23;20001;-61
2021/05/08 02:00:17;;;;;;;4.80;3.43;;;;;;;;;;6185599;23;20017;-61
2021/05/08 02:02:45;;;;;;;8.75;3.47;;;;;;;;;;6186078;23;20009;-61
2021/05/08 02:05:12;;;;;;;5.97;3.67;;;;;;;;;;6185683;23;20013;-61
2021/05/08 02:07:39;;;;;;;6.10;3.60;;;;;;;;;;6185317;23;20044;-59
2021/05/08 02:10:06;;;;;;;5.27;3.50;;;;;;;;;;6185290;23;20015;-61
2021/05/08 02:12:33;;;;;;;16.77;3.27;;;;;;;;;;6186740;23;20025;-61
2021/05/08 02:15:00;;;;;;;4.57;3.17;;;;;;;;;;6185646;23;20005;-62
2021/05/08 02:17:27;;;;;;;8.23;4.13;;;;;;;;;;6185468;23;20001;-62
2021/05/08 02:19:54;;;;;;;5.00;3.33;;;;;;;;;;6185400;23;20013;-61
2021/05/08 02:22:21;;;;;;;8.97;3.60;;;;;;;;;;6185315;23;20008;-61
2021/05/08 02:24:47;;;;;;;9.00;3.77;;;;;;;;;;6158969;23;20417;-61
2021/05/08 02:27:14;;;;;;;8.67;3.20;;;;;;;;;;6185240;23;20204;-62
2021/05/08 02:29:41;;;;;;;4.93;2.93;;;;;;;;;;6185447;23;20117;-61
2021/05/08 02:32:08;;;;;;;6.27;3.10;;;;;;;;;;6185331;23;20005;-61
2021/05/08 02:34:35;;;;;;;4.57;2.77;;;;;;;;;;6185243;23;20097;-61
2021/05/08 02:37:02;;;;;;;6.40;3.37;;;;;;;;;;6185148;23;19997;-62
2021/05/08 02:39:29;;;;;;;4.70;3.13;;;;;;;;;;6185328;23;20013;-62
2021/05/08 02:41:56;;;;;;;5.30;3.63;;;;;;;;;;6185278;23;20001;-61
2021/05/08 02:44:22;;;;;;;5.23;3.20;;;;;;;;;;6185264;23;20306;-60
2021/05/08 02:46:49;;;;;;;7.00;3.53;;;;;;;;;;6185115;23;20005;-61
2021/05/08 02:49:16;;;;;;;5.23;3.10;;;;;;;;;;6184992;23;20001;-62
2021/05/08 02:51:43;;;;;;;7.10;2.93;;;;;;;;;;6158957;23;20421;-61
2021/05/08 02:54:10;;;;;;;7.40;3.27;;;;;;;;;;6185281;23;20050;-61
2021/05/08 02:56:36;;;;;;;5.07;2.67;;;;;;;;;;6185143;23;20012;-60
2021/05/08 02:59:03;;;;;;;6.30;3.33;;;;;;;;;;6185248;23;20092;-61
2021/05/08 03:01:30;;;;;;;4.83;2.90;;;;;;;;;;6185305;23;19998;-61
2021/05/08 03:03:57;;;;;;;5.77;3.07;;;;;;;;;;6185336;23;20001;-61
2021/05/08 03:06:24;;;;;;;5.67;3.20;;;;;;;;;;6185249;23;20005;-61
2021/05/08 03:08:50;;;;;;;9.23;2.83;;;;;;;;;;6185215;23;20008;-61
2021/05/08 03:11:33;;;;;;;7.53;3.30;;;;;;;;;;6186048;22;20329;-61
2021/05/08 03:14:00;;;;;;;9.53;3.80;;;;;;;;;;6185163;23;20088;-61
2021/05/08 03:16:27;;;;;;;14.70;4.07;;;;;;;;;;6185180;23;20005;-61
2021/05/08 03:18:54;;;;;;;8.87;2.73;;;;;;;;;;6185160;23;20033;-61
2021/05/08 03:21:20;;;;;;;5.43;3.03;;;;;;;;;;6185198;23;20001;-61
2021/05/08 03:23:47;;;;;;;5.17;3.30;;;;;;;;;;6185210;23;20032;-61
2021/05/08 03:26:14;;;;;;;9.00;3.43;;;;;;;;;;6185047;23;20363;-61
2021/05/08 03:28:41;;;;;;;5.77;3.10;;;;;;;;;;6185216;23;20352;-61
2021/05/08 03:31:07;;;;;;;4.83;3.17;;;;;;;;;;6184943;23;20428;-61
2021/05/08 03:33:34;;;;;;;6.37;3.50;;;;;;;;;;6185161;23;20001;-61
2021/05/08 03:36:01;;;;;;;4.57;2.83;;;;;;;;;;6185199;23;19997;-61
2021/05/08 03:38:28;;;;;;;5.93;3.33;;;;;;;;;;6184968;23;20032;-61
2021/05/08 03:40:54;;;;;;;7.63;3.40;;;;;;;;;;6184883;23;20005;-61
2021/05/08 03:43:24;;;;;;;7.07;3.40;;;;;;;;;;6185043;23;20079;-61
2021/05/08 03:45:55;;;;;;;4.30;2.80;;;;;;;;;;6185046;23;20001;-60
2021/05/08 03:48:22;;;;;;;5.40;3.33;;;;;;;;;;6133901;23;20005;-61
2021/05/08 03:50:49;;;;;;;4.97;3.03;;;;;;;;;;6183907;23;20066;-61
2021/05/08 03:53:16;;;;;;;8.63;3.87;;;;;;;;;;6184926;23;20012;-61
2021/05/08 03:55:43;;;;;;;5.70;3.20;;;;;;;;;;6185101;23;20021;-61
2021/05/08 03:58:10;;;;;;;5.20;3.10;;;;;;;;;;6158789;23;20069;-61
2021/05/08 04:00:36;;;;;;;4.60;2.63;;;;;;;;;;6184815;23;20001;-61
2021/05/08 04:03:03;;;;;;;6.70;3.03;;;;;;;;;;6186602;23;20013;-61
2021/05/08 04:05:30;;;;;;;5.63;3.10;;;;;;;;;;6186892;23;19998;-61
2021/05/08 04:07:57;;;;;;;6.23;3.30;;;;;;;;;;6186740;23;20010;-60
2021/05/08 04:10:24;;;;;;;5.07;2.87;;;;;;;;;;6187001;23;19998;-61
2021/05/08 04:12:58;;;;;;;6.73;3.00;;;;;;;;;;6188073;23;20260;-61
2021/05/08 04:15:25;;;;;;;5.33;2.90;;;;;;;;;;6186760;23;20040;-61
2021/05/08 04:17:51;;;;;;;5.43;2.80;;;;;;;;;;6186409;23;20001;-60
2021/05/08 04:20:18;;;;;;;4.90;2.67;;;;;;;;;;6186675;23;20080;-60
2021/05/08 04:22:45;;;;;;;3.60;2.30;;;;;;;;;;6186547;23;20065;-61
2021/05/08 04:25:12;;;;;;;6.03;2.70;;;;;;;;;;6186733;23;20032;-60
2021/05/08 04:27:39;;;;;;;4.43;2.60;;;;;;;;;;6186319;23;20378;-61
2021/05/08 04:30:06;;;;;;;5.90;2.73;;;;;;;;;;6186450;23;20001;-60
2021/05/08 04:32:33;;;;;;;7.77;3.60;;;;;;;;;;6186668;23;20005;-60
2021/05/08 04:34:59;;;;;;;6.87;3.03;;;;;;;;;;6186392;23;20005;-61
2021/05/08 04:37:26;;;;;;;5.63;2.70;;;;;;;;;;6186526;23;20001;-61
2021/05/08 04:39:53;;;;;;;5.03;2.73;;;;;;;;;;6186207;23;20037;-61
2021/05/08 04:42:20;;;;;;;4.80;3.13;;;;;;;;;;6186567;23;20025;-61
2021/05/08 04:44:47;;;;;;;13.40;3.97;;;;;;;;;;6186265;23;20011;-61
2021/05/08 04:47:15;;;;;;;7.80;3.80;;;;;;;;;;6186150;23;20001;-61
2021/05/08 04:49:42;;;;;;;12.80;3.70;;;;;;;;;;6186385;23;20008;-60
2021/05/08 04:52:09;;;;;;;7.37;3.33;;;;;;;;;;6186209;23;20484;-60
2021/05/08 04:54:36;;;;;;;8.87;3.53;;;;;;;;;;6186386;23;20024;-61
2021/05/08 04:57:03;;;;;;;7.77;3.60;;;;;;;;;;6186072;23;20016;-60
2021/05/08 04:59:30;;;;;;;6.80;3.50;;;;;;;;;;6186152;23;20041;-60
2021/05/08 05:01:57;;;;;;;7.13;3.37;;;;;;;;;;6186126;23;20080;-60
2021/05/08 05:04:24;;;;;;;5.27;3.30;;;;;;;;;;6186313;23;20008;-60
2021/05/08 05:06:51;;;;;;;5.23;3.10;;;;;;;;;;6185979;23;20001;-60
2021/05/08 05:09:17;;;;;;;5.30;2.93;;;;;;;;;;6186108;23;20264;-60
2021/05/08 05:11:44;;;;;;;5.40;3.20;;;;;;;;;;6187144;23;20337;-61
2021/05/08 05:14:11;;;;;;;5.73;3.53;;;;;;;;;;6186074;23;20324;-60
2021/05/08 05:16:38;;;;;;;5.63;3.30;;;;;;;;;;6186124;23;20068;-61
2021/05/08 05:19:04;;;;;;;4.37;2.87;;;;;;;;;;6185979;23;20016;-60
2021/05/08 05:21:31;;;;;;;9.20;3.63;;;;;;;;;;6185940;23;20012;-60
2021/05/08 05:23:58;;;;;;;8.17;3.80;;;;;;;;;;6186159;23;20030;-60
2021/05/08 05:26:26;;;;;;;5.53;3.40;;;;;;;;;;6186054;23;20055;-60
2021/05/08 05:28:53;;;;;;;5.37;3.63;;;;;;;;;;6186167;23;20089;-60
2021/05/08 05:31:20;;;;;;;8.07;3.70;;;;;;;;;;6185969;23;20337;-60
2021/05/08 05:33:47;;;;;;;7.37;3.30;;;;;;;;;;6185843;23;20444;-60
2021/05/08 05:36:14;;;;;;;5.37;3.30;;;;;;;;;;6185796;23;20063;-60
2021/05/08 05:38:42;;;;;;;6.40;3.20;;;;;;;;;;6186252;23;20006;-60
2021/05/08 05:41:09;;;;;;;4.60;2.77;;;;;;;;;;6185746;23;20009;-60
2021/05/08 05:43:36;;;;;;;8.90;3.43;;;;;;;;;;6185682;23;20005;-60
2021/05/08 05:46:04;;;;;;;7.43;3.80;;;;;;;;;;6185877;23;20001;-60
2021/05/08 05:48:30;;;;;;;5.93;3.10;;;;;;;;;;6185710;23;20001;-60
2021/05/08 05:50:57;;;;;;;4.60;3.20;;;;;;;;;;6185621;23;20005;-60
2021/05/08 05:53:24;;;;;;;6.13;3.30;;;;;;;;;;6185652;23;20524;-60
2021/05/08 05:55:51;;;;;;;5.00;3.23;;;;;;;;;;6185820;23;20004;-60
2021/05/08 05:58:18;;;;;;;6.90;3.40;;;;;;;;;;6185591;23;20071;-60
2021/05/08 06:00:44;;;;;;;4.70;3.30;;;;;;;;;;6185545;23;20005;-60
2021/05/08 06:03:11;;;;;;;6.60;3.13;;;;;;;;;;6185560;23;20008;-60
2021/05/08 06:05:38;;;;;;;4.90;3.00;;;;;;;;;;6185579;23;20005;-60
2021/05/08 06:08:05;;;;;;;4.50;2.70;;;;;;;;;;6185597;23;20036;-60
2021/05/08 06:10:32;;;;;;;7.23;2.80;;;;;;;;;;6185732;23;20052;-60
2021/05/08 06:12:58;;;;;;;6.60;3.20;;;;;;;;;;6186743;23;20047;-60
2021/05/08 06:15:25;;;;;;;7.30;3.60;;;;;;;;;;6185387;23;20012;-60
2021/05/08 06:17:52;;;;;;;6.53;3.40;;;;;;;;;;6185344;23;20005;-60
2021/05/08 06:20:19;;;;;;;6.40;3.27;;;;;;;;;;6185560;23;20008;-60
2021/05/08 06:22:45;;;;;;;6.87;3.87;;;;;;;;;;6185377;23;20016;-60
2021/05/08 06:25:12;;;;;;;7.87;3.90;;;;;;;;;;6185313;23;20005;-60
2021/05/08 06:27:40;;;;;;;5.77;3.30;;;;;;;;;;6185641;23;20005;-60
2021/05/08 06:30:08;;;;;;;6.60;3.93;;;;;;;;;;6185508;23;20115;-60
2021/05/08 06:32:34;;;;;;;5.50;3.17;;;;;;;;;;6185345;23;20051;-60
2021/05/08 06:35:01;;;;;;;6.43;3.60;;;;;;;;;;6185631;23;20005;-60
2021/05/08 06:37:28;;;;;;;6.07;3.33;;;;;;;;;;6185279;23;20027;-60
2021/05/08 06:39:56;;;;;;;5.63;3.10;;;;;;;;;;6185204;23;20017;-60
2021/05/08 06:42:23;;;;;;;6.23;2.93;;;;;;;;;;6185296;23;20450;-60
2021/05/08 06:44:49;;;;;;;9.83;4.23;;;;;;;;;;6185180;23;20016;-60
2021/05/08 06:47:16;;;;;;;6.40;4.00;;;;;;;;;;6185202;23;20001;-60
2021/05/08 06:49:43;;;;;;;7.57;3.77;;;;;;;;;;6185178;23;20012;-60
2021/05/08 06:52:10;;;;;;;6.47;3.37;;;;;;;;;;6185337;23;20059;-60
2021/05/08 06:54:37;;;;;;;6.53;3.67;;;;;;;;;;6185371;23;20005;-60
2021/05/08 06:57:05;;;;;;;8.63;3.70;;;;;;;;;;6185234;23;20004;-60
2021/05/08 06:59:32;;;;;;;6.30;3.60;;;;;;;;;;6184981;23;20017;-60
2021/05/08 07:01:58;;;;;;;9.37;4.67;;;;;;;;;;6185085;23;20025;-60
2021/05/08 07:04:25;;;;;;;6.50;3.63;;;;;;;;;;6185183;23;20033;-60
2021/05/08 07:06:52;;;;;;;7.77;3.50;;;;;;;;;;6184966;23;20001;-60
2021/05/08 07:09:22;;;;;;;7.67;3.97;;;;;;;;;;6185161;23;20008;-60
2021/05/08 07:11:49;;;;;;;7.33;3.77;;;;;;;;;;6186184;23;20013;-60
2021/05/08 07:14:16;;;;;;;8.37;4.60;;;;;;;;;;6185319;23;20005;-60
2021/05/08 07:16:43;;;;;;;5.53;3.17;;;;;;;;;;6185236;23;20016;-60
2021/05/08 07:19:10;;;;;;;6.23;3.30;;;;;;;;;;6185414;23;20009;-60
2021/05/08 07:21:38;;;;;;;6.83;3.83;;;;;;;;;;6185205;23;20009;-60
2021/05/08 07:24:06;;;;;;;7.53;4.20;;;;;;;;;;6185070;23;20016;-60
2021/05/08 07:26:33;;;;;;;7.50;4.20;;;;;;;;;;6185086;23;20139;-60
2021/05/08 07:29:00;;;;;;;4.53;2.97;;;;;;;;;;6185006;23;20072;-60
2021/05/08 07:31:27;;;;;;;9.93;3.83;;;;;;;;;;6185199;23;20421;-60
2021/05/08 07:33:54;;;;;;;6.70;3.37;;;;;;;;;;6185161;23;20061;-60
2021/05/08 07:36:21;;;;;;;6.53;3.97;;;;;;;;;;6186262;23;20129;-60
2021/05/08 07:38:51;;;;;;;5.63;3.23;;;;;;;;;;6187031;23;20012;-60
2021/05/08 07:41:18;;;;;;;5.90;4.00;;;;;;;;;;6186968;23;20016;-60
2021/05/08 07:43:45;;;;;;;6.63;3.73;;;;;;;;;;6186982;23;20036;-60
2021/05/08 07:46:12;;;;;;;6.13;3.30;;;;;;;;;;6187025;23;20005;-60
2021/05/08 07:48:39;;;;;;;7.17;3.47;;;;;;;;;;6187033;23;20128;-60
2021/05/08 07:51:06;;;;;;;4.80;3.13;;;;;;;;;;6186881;23;20005;-60
2021/05/08 07:53:33;;;;;;;5.63;3.37;;;;;;;;;;6187114;23;20053;-60
2021/05/08 07:55:59;;;;;;;5.57;3.27;;;;;;;;;;6186931;23;20028;-60
2021/05/08 07:58:26;;;;;;;6.93;4.03;;;;;;;;;;6186677;23;20067;-60
2021/05/08 08:00:53;;;;;;;7.80;4.10;;;;;;;;;;6186728;23;20012;-60
2021/05/08 08:03:20;;;;;;;8.47;4.50;;;;;;;;;;6187281;23;20056;-59
2021/05/08 08:05:47;;;;;;;7.63;4.90;;;;;;;;;;6186836;23;20345;-60
2021/05/08 08:08:13;;;;;;;5.17;3.60;;;;;;;;;;6186533;23;20440;-60
2021/05/08 08:10:40;;;;;;;5.97;3.43;;;;;;;;;;6186827;23;20032;-60
2021/05/08 08:13:07;;;;;;;11.13;3.43;;;;;;;;;;6187661;22;20253;-60
2021/05/08 08:15:34;;;;;;;5.93;3.30;;;;;;;;;;6186932;23;20320;-60
2021/05/08 08:18:01;;;;;;;7.07;3.50;;;;;;;;;;6186487;23;20059;-60
2021/05/08 08:20:27;;;;;;;6.77;3.97;;;;;;;;;;6186517;23;20001;-60
2021/05/08 08:22:54;;;;;;;9.53;4.30;;;;;;;;;;6186566;23;20211;-60
2021/05/08 08:25:21;;;;;;;5.73;3.60;;;;;;;;;;6186566;23;20032;-60
2021/05/08 08:27:48;;;;;;;6.23;3.77;;;;;;;;;;6186399;23;20211;-60
2021/05/08 08:30:15;;;;;;;7.63;4.00;;;;;;;;;;6186459;23;20722;-60
2021/05/08 08:32:41;;;;;;;5.77;3.30;;;;;;;;;;6186420;23;20269;-59
2021/05/08 08:35:09;;;;;;;6.17;3.30;;;;;;;;;;6186588;23;20716;-59
2021/05/08 08:37:35;;;;;;;5.97;3.33;;;;;;;;;;6186500;23;20219;-59
2021/05/08 08:40:03;;;;;;;6.33;4.07;;;;;;;;;;6186475;23;20693;-59
2021/05/08 08:42:30;;;;;;;6.87;4.10;;;;;;;;;;6186502;23;20224;-59
2021/05/08 08:45:00;;;;;;;5.00;3.00;;;;;;;;;;6186634;23;20219;-60
2021/05/08 08:47:30;;;;;;;5.20;3.47;;;;;;;;;;6185999;23;20215;-59
2021/05/08 08:50:05;;;;;;;7.03;4.00;;;;;;;;;;6186405;23;20215;-60
2021/05/08 08:52:31;;;;;;;;;;;;;;;;;;6187035;23;20293;-60
2021/05/08 08:54:58;;;;;;;8.63;3.80;;;;;;;;;;6186302;23;20240;-59
2021/05/08 08:57:29;;;;;;;6.53;3.40;;;;;;;;;;6186414;23;20215;-59
2021/05/08 08:59:56;;;;;;;6.73;3.50;;;;;;;;;;6186300;23;20702;-59
2021/05/08 09:02:25;;;;;;;6.87;4.10;;;;;;;;;;6186142;23;20215;-60
2021/05/08 09:04:53;;;;;;;7.77;4.57;;;;;;;;;;6186170;23;20215;-59
2021/05/08 09:07:20;;;;;;;7.17;4.07;;;;;;;;;;6185929;23;20207;-59
2021/05/08 09:09:49;;;;;;;6.47;3.87;;;;;;;;;;6186210;23;20242;-60
2021/05/08 09:12:17;;;;;;;8.77;3.93;;;;;;;;;;6187334;23;20325;-59
2021/05/08 09:14:48;;;;;;;6.10;3.60;;;;;;;;;;6186179;23;20213;-59
2021/05/08 09:17:16;;;;;;;5.10;3.13;;;;;;;;;;6186065;23;20215;-59
2021/05/08 09:19:44;;;;;;;6.40;3.60;;;;;;;;;;6185992;23;20254;-59
2021/05/08 09:22:27;;;;;;;7.13;4.33;;;;;;;;;;6186164;23;20211;-59
2021/05/08 09:25:07;;;;;;;6.63;3.73;;;;;;;;;;6186156;23;20266;-59
2021/05/08 09:27:49;;;;;;;6.17;3.70;;;;;;;;;;6186082;23;20225;-59
2021/05/08 09:30:26;;;;;;;7.87;3.60;;;;;;;;;;6186133;23;20301;-60
2021/05/08 09:32:53;;;;;;;6.77;3.50;;;;;;;;;;6186080;23;20211;-59
2021/05/08 09:35:21;;;;;;;6.63;3.50;;;;;;;;;;6186089;23;20298;-60
2021/05/08 09:37:52;;;;;;;6.17;3.70;;;;;;;;;;6185936;23;20207;-59
2021/05/08 09:40:27;;;;;;;6.17;3.70;;;;;;;;;;6185854;23;20239;-59
2021/05/08 09:42:55;;;;;;;7.43;4.33;;;;;;;;;;6185868;23;20732;-59
2021/05/08 09:45:23;;;;;;;6.47;3.70;;;;;;;;;;6159470;23;20231;-59
2021/05/08 09:47:50;;;;;;;5.80;3.60;;;;;;;;;;6185629;23;20226;-60
2021/05/08 09:50:20;;;;;;;7.00;3.40;;;;;;;;;;6186067;23;20310;-60
2021/05/08 09:52:48;;;;;;;5.80;3.60;;;;;;;;;;6185844;23;20211;-59
2021/05/08 09:55:15;;;;;;;6.50;3.33;;;;;;;;;;6185853;23;20235;-59
2021/05/08 09:57:42;;;;;;;8.27;4.50;;;;;;;;;;6185770;23;20215;-60
2021/05/08 10:00:29;;;;;;;6.63;4.20;;;;;;;;;;6185227;23;20243;-59
2021/05/08 10:03:25;;;;;;;9.83;4.70;;;;;;;;;;6185629;23;20289;-60
2021/05/08 10:06:04;;;;;;;9.25;3.88;;;;;;;;;;6154837;23;20227;-59
2021/05/08 10:08:31;;;;;;;8.87;4.73;;;;;;;;;;6185442;23;20425;-59
2021/05/08 10:10:58;;;;;;;8.73;4.53;;;;;;;;;;6185478;23;20504;-60
2021/05/08 10:13:27;;;;;;;9.87;5.00;;;;;;;;;;6186690;23;20270;-59
2021/05/08 10:15:55;;;;;;;9.83;5.07;;;;;;;;;;6185608;23;20219;-59
2021/05/08 10:18:21;;;;;;;9.63;5.13;;;;;;;;;;6185455;23;20242;-60
2021/05/08 10:20:48;;;;;;;8.07;4.87;;;;;;;;;;6185523;23;20274;-59
2021/05/08 10:23:15;;;;;;;8.30;4.93;;;;;;;;;;6185518;23;20222;-59
2021/05/08 10:25:42;;;;;;;8.57;4.97;;;;;;;;;;6185463;23;20211;-59
2021/05/08 10:28:09;;;;;;;8.83;4.87;;;;;;;;;;6185531;23;20219;-59
2021/05/08 10:30:41;;;;;;;8.00;5.17;;;;;;;;;;6185305;23;20240;-59
2021/05/08 10:33:10;;;;;;;10.93;6.43;;;;;;;;;;6185372;23;20225;-59
2021/05/08 10:35:47;;;;;;;8.97;5.10;;;;;;;;;;6185347;23;20665;-60
2021/05/08 10:38:18;;;;;;;8.20;5.13;;;;;;;;;;6185463;23;20215;-59
2021/05/08 10:40:53;;;;;;;7.43;4.73;;;;;;;;;;6185427;23;20306;-59
2021/05/08 10:43:51;;;;;;;10.98;5.88;;;;;;;;;;6185367;23;20214;-59
2021/05/08 10:46:22;;;;;;;7.10;4.37;;;;;;;;;;6156801;23;20443;-59
2021/05/08 10:49:12;;;;;;;7.93;4.63;;;;;;;;;;6185204;23;20270;-59
2021/05/08 10:52:01;;;;;;;10.13;5.00;;;;;;;;;;6185226;23;20743;-59
2021/05/08 10:54:43;;;;;;;8.53;4.97;;;;;;;;;;6185174;23;20289;-59
2021/05/08 10:57:18;;;;;;;13.93;8.20;;;;;;;;;;6185087;23;20542;-59
2021/05/08 11:00:03;;;;;;;19.98;9.88;;;;;;;;;;6185068;23;20247;-59
2021/05/08 11:02:45;;;;;;;14.27;8.57;;;;;;;;;;6185209;23;20028;-59
2021/05/08 11:05:26;;;;;;;18.50;10.27;;;;;;;;;;6185265;23;20324;-59
2021/05/08 11:07:52;;;;;;;16.17;8.07;;;;;;;;;;6185050;23;20694;-59
2021/05/08 11:10:34;;;;;;;12.67;7.40;;;;;;;;;;6185869;23;20206;-59
2021/05/08 11:13:16;;;;;;;17.47;7.60;;;;;;;;;;6186535;23;20247;-60
2021/05/08 11:15:55;;;;;;;12.07;7.43;;;;;;;;;;6158532;23;20246;-59
2021/05/08 11:18:32;;;;;;;14.03;8.07;;;;;;;;;;6184963;23;20239;-59
2021/05/08 11:21:14;;;;;;;11.77;6.77;;;;;;;;;;6185370;23;20216;-59
2021/05/08 11:24:01;;;;;;;12.03;7.43;;;;;;;;;;6185181;23;20215;-59
2021/05/08 11:26:28;;;;;;;11.53;7.23;;;;;;;;;;6184910;23;20207;-60
2021/05/08 11:29:02;;;;;;;14.03;6.50;;;;;;;;;;6185129;23;20277;-59
2021/05/08 11:31:36;;;;;;;6.63;4.40;;;;;;;;;;6184962;23;20233;-59
2021/05/08 11:34:06;;;;;;;8.70;4.40;;;;;;;;;;6185156;23;20306;-59
2021/05/08 11:36:41;;;;;;;8.03;4.57;;;;;;;;;;6184853;23;20203;-59
2021/05/08 11:39:12;;;;;;;6.75;4.15;;;;;;;;;;6185042;23;20342;-59
2021/05/08 11:41:39;;;;;;;7.07;4.00;;;;;;;;;;6185089;23;20036;-59
2021/05/08 11:44:06;;;;;;;7.60;4.40;;;;;;;;;;6184881;23;20293;-59
2021/05/08 11:46:33;;;;;;;8.10;4.50;;;;;;;;;;6185076;23;20494;-59
2021/05/08 11:49:01;;;;;;;15.10;6.70;;;;;;;;;;6184860;23;20215;-59
2021/05/08 11:51:28;;;;;;;12.83;6.03;;;;;;;;;;6184860;23;20274;-60
2021/05/08 11:54:10;;;;;;;17.60;9.70;;;;;;;;;;6185059;23;20211;-60
2021/05/08 11:56:37;;;;;;;23.53;12.47;;;;;;;;;;6185088;23;20219;-60
2021/05/08 11:59:04;;;;;;;19.90;11.40;;;;;;;;;;6184778;23;20278;-59
2021/05/08 12:01:31;;;;;;;14.93;8.73;;;;;;;;;;6184853;23;20212;-59
2021/05/08 12:03:59;;;;;;;13.43;6.93;;;;;;;;;;6185085;23;20261;-60
2021/05/08 12:06:26;;;;;;;8.63;5.20;;;;;;;;;;6184859;23;20215;-59
2021/05/08 12:08:54;;;;;;;7.53;5.23;;;;;;;;;;6184771;23;20346;-59
2021/05/08 12:11:21;;;;;;;9.80;7.27;;;;;;;;;;6184697;23;20207;-60
2021/05/08 12:13:48;;;;;;;14.03;5.63;;;;;;;;;;6186092;22;20670;-59
2021/05/08 12:16:16;;;;;;;10.70;5.97;;;;;;;;;;6184718;23;20559;-59
2021/05/08 12:18:43;;;;;;;9.93;5.17;;;;;;;;;;6184724;23;20255;-60
2021/05/08 12:21:14;;;;;;;6.63;4.47;;;;;;;;;;6184709;23;20599;-60
2021/05/08 12:23:41;;;;;;;8.53;5.10;;;;;;;;;;6186154;23;20233;-59
2021/05/08 12:26:12;;;;;;;9.57;5.23;;;;;;;;;;6186826;23;20249;-60
2021/05/08 12:28:42;;;;;;;8.53;5.33;;;;;;;;;;6186646;23;20305;-60
2021/05/08 12:31:28;;;;;;;10.70;5.90;;;;;;;;;;6186491;23;20226;-60
2021/05/08 12:33:57;;;;;;;8.27;4.37;;;;;;;;;;6186623;23;20214;-60
2021/05/08 12:36:24;;;;;;;7.40;4.73;;;;;;;;;;6186339;23;20532;-59
2021/05/08 12:38:53;;;;;;;7.60;4.77;;;;;;;;;;6186261;23;20257;-59
2021/05/08 12:41:24;;;;;;;8.77;5.53;;;;;;;;;;6186470;23;20227;-59
2021/05/08 12:43:51;;;;;;;10.90;5.50;;;;;;;;;;6186452;23;20225;-59
2021/05/08 12:46:17;;;;;;;13.57;7.30;;;;;;;;;;6186322;23;20269;-60
2021/05/08 12:48:44;;;;;;;12.07;5.97;;;;;;;;;;6186645;23;20219;-59
2021/05/08 12:51:30;;;;;;;13.10;5.90;;;;;;;;;;6186281;23;20561;-60
2021/05/08 12:54:16;;;;;;;11.33;5.53;;;;;;;;;;6186118;23;20230;-59
2021/05/08 12:56:42;;;;;;;8.55;5.85;;;;;;;;;;6186297;23;20523;-59
2021/05/08 12:59:10;;;;;;;15.30;8.30;;;;;;;;;;6186461;23;20099;-60
2021/05/08 13:01:38;;;;;;;31.67;10.50;;;;;;;;;;6186340;23;20211;-60
2021/05/08 13:04:05;;;;;;;22.77;10.43;;;;;;;;;;6186334;23;20512;-60
2021/05/08 13:06:32;;;;;;;14.33;7.93;;;;;;;;;;6186004;23;20215;-60
2021/05/08 13:08:58;;;;;;;11.37;6.70;;;;;;;;;;6186271;23;20214;-60
2021/05/08 13:11:38;;;;;;;11.13;6.57;;;;;;;;;;6186005;23;20215;-60
2021/05/08 13:14:23;;;;;;;9.23;5.50;;;;;;;;;;6187317;23;20304;-60
2021/05/08 13:16:51;;;;;;;12.68;6.07;;;;;;;;;;6186526;23;20215;-60
2021/05/08 13:19:19;;;;;;;11.07;5.80;;;;;;;;;;6186003;23;20425;-60
2021/05/08 13:21:46;;;;;;;13.43;6.53;;;;;;;;;;6186016;23;20220;-60
2021/05/08 13:24:13;;;;;;;18.20;8.53;;;;;;;;;;6159656;23;20011;-60
2021/05/08 13:26:40;;;;;;;10.83;6.93;;;;;;;;;;6186077;23;20055;-60
2021/05/08 13:29:07;;;;;;;15.27;7.27;;;;;;;;;;6186265;23;20004;-60
2021/05/08 13:31:34;;;;;;;10.37;6.37;;;;;;;;;;6185837;23;20080;-61
2021/05/08 13:34:01;;;;;;;11.83;7.37;;;;;;;;;;6185977;23;20001;-61
2021/05/08 13:36:28;;;;;;;11.03;6.47;;;;;;;;;;6185874;23;20068;-61
2021/05/08 13:38:55;;;;;;;14.53;6.40;;;;;;;;;;6185676;23;20016;-60
2021/05/08 13:41:21;;;;;;;11.43;6.23;;;;;;;;;;6185831;23;20079;-60
2021/05/08 13:43:48;;;;;;;13.57;6.33;;;;;;;;;;6185662;23;20005;-61
2021/05/08 13:46:15;;;;;;;11.30;6.03;;;;;;;;;;6185784;23;20115;-61
2021/05/08 13:48:42;;;;;;;11.43;6.23;;;;;;;;;;6185688;23;20001;-61
2021/05/08 13:51:08;;;;;;;8.53;5.80;;;;;;;;;;6185899;23;20005;-61
2021/05/08 13:53:35;;;;;;;11.70;6.43;;;;;;;;;;6185751;23;20009;-61
2021/05/08 13:56:02;;;;;;;10.80;6.40;;;;;;;;;;6185790;23;20001;-61
2021/05/08 13:58:29;;;;;;;9.90;5.70;;;;;;;;;;6185704;23;20063;-61
2021/05/08 14:00:55;;;;;;;13.57;5.13;;;;;;;;;;6185574;23;20432;-61
2021/05/08 14:03:22;;;;;;;9.80;5.33;;;;;;;;;;6185587;23;20001;-61
2021/05/08 14:05:49;;;;;;;9.63;5.40;;;;;;;;;;6185468;23;20005;-61
2021/05/08 14:08:16;;;;;;;11.77;6.33;;;;;;;;;;6185387;23;20009;-61
2021/05/08 14:10:43;;;;;;;9.03;5.37;;;;;;;;;;6185535;23;20005;-61
2021/05/08 14:13:09;;;;;;;11.17;5.97;;;;;;;;;;6186742;23;20036;-61
2021/05/08 14:15:36;;;;;;;9.90;6.37;;;;;;;;;;6185392;23;20009;-61
2021/05/08 14:18:03;;;;;;;8.80;4.83;;;;;;;;;;6185466;23;20002;-61
2021/05/08 14:20:30;;;;;;;8.50;4.80;;;;;;;;;;6185572;23;19997;-61
2021/05/08 14:22:57;;;;;;;10.67;5.63;;;;;;;;;;6185442;23;20005;-61
2021/05/08 14:25:24;;;;;;;10.70;5.37;;;;;;;;;;6185395;23;19997;-61
2021/05/08 14:27:50;;;;;;;10.33;4.80;;;;;;;;;;6185611;23;20005;-61
2021/05/08 14:30:17;;;;;;;11.43;5.07;;;;;;;;;;6185398;23;20005;-61
2021/05/08 14:32:44;;;;;;;8.43;4.60;;;;;;;;;;6185529;23;20009;-61
2021/05/08 14:35:12;;;;;;;7.97;4.90;;;;;;;;;;6185449;23;19997;-61
2021/05/08 14:37:40;;;;;;;6.50;4.67;;;;;;;;;;6185283;23;20016;-61
2021/05/08 14:40:07;;;;;;;9.03;5.13;;;;;;;;;;6185366;23;20063;-61
2021/05/08 14:42:34;;;;;;;7.70;4.63;;;;;;;;;;6185184;23;20005;-61
2021/05/08 14:45:02;;;;;;;8.83;5.20;;;;;;;;;;6184911;23;20016;-61
2021/05/08 14:47:29;;;;;;;9.43;6.57;;;;;;;;;;6185395;23;20001;-61
2021/05/08 14:49:56;;;;;;;8.83;5.40;;;;;;;;;;6185114;23;20005;-61